POGODA: Poland

Lotnisko: Katowice-Pyrzowice

METAR KOD: EPKT


METAR: EPKT 221500Z 29008KT 9999 -RA FEW005 SCT007 BKN017 06/05 Q1003


BLOK
Pogoda METAR
221500Z
Dzien: 22, Godzina: 15:00 UTC.
29008KT
Wiatr z kierunku 290, o predkosci 15 km/h
9999
Widzialnosc pozioma ponad 10 km.
-RA
slab. deszcz
FEW005
1/8 - 2/8 pokrycia nieba, chmurami o podstawie: 150 metrow
SCT007
3/8 - 4/8 pokrycia nieba, chmurami o podstawie: 210 metrow
BKN017
5/8 - 7/8 pokrycia nieba, chmurami o podstawie: 510 metrow
06/05
Temperatura: powietrze 6°C, punkt rosy 5°C . Wilgotnosc wzgledna 83 %
Q1003
Cisnienie: 1003 hPa

Pogoda na innym lotnisku

Pogoda Gdansk-Rebiechowo WEATHER Poland  
Pogoda Katowice WEATHER Poland  
Pogoda Krakow WEATHER Poland  
Pogoda Poznan WEATHER Poland  
Pogoda Rzeszow-Jasionka WEATHER Poland  
Pogoda Szczecin WEATHER Poland  
Pogoda Warszawa-Okecie WEATHER Poland  
Pogoda Wroclaw Ii WEATHER Poland  

Pogoda w inny kraju

Strona startowa

(C) by GREGOR 2007
Ogłoszenia Towarzyskie